createdAt,value
2019-05-05T00:01:59.091Z,99949.72
2019-05-05T00:04:47.682Z,99944.17
2019-05-05T00:07:25.262Z,99950.77
2019-05-05T00:09:55.459Z,99955.09
2019-05-05T00:12:55.941Z,99957.50
2019-05-05T00:15:48.366Z,99962.21
2019-05-05T00:18:22.684Z,99965.91
2019-05-05T00:20:55.096Z,99966.44
2019-05-05T00:23:25.251Z,99974.91
2019-05-05T00:25:57.423Z,99970.20
2019-05-05T00:28:28.136Z,99977.80
2019-05-05T00:30:59.699Z,99972.02
2019-05-05T00:33:30.703Z,99973.41
2019-05-05T00:36:01.098Z,99977.09
2019-05-05T00:38:31.885Z,99977.84
2019-05-05T00:41:02.274Z,99983.30
2019-05-05T00:43:34.514Z,99984.56
2019-05-05T00:46:10.662Z,99991.30
2019-05-05T00:48:44.542Z,99997.89
2019-05-05T00:51:15.215Z,99998.42
2019-05-05T00:53:45.499Z,99999.40
2019-05-05T00:56:16.240Z,100004.08
2019-05-05T00:58:55.364Z,100005.42
2019-05-05T01:01:44.824Z,100011.23
2019-05-05T01:04:17.825Z,100016.63
2019-05-05T01:06:48.276Z,100015.12
2019-05-05T01:09:22.296Z,100018.66
2019-05-05T01:11:52.676Z,100029.39
2019-05-05T01:14:24.887Z,100036.66
2019-05-05T01:16:55.271Z,100037.30
2019-05-05T01:19:25.658Z,100041.11
2019-05-05T01:21:55.967Z,100043.95
2019-05-05T01:24:26.294Z,100045.36
2019-05-05T01:26:57.026Z,100055.45
2019-05-05T01:29:27.267Z,100062.08
2019-05-05T01:31:59.485Z,100062.48
2019-05-05T01:34:34.846Z,100063.58
2019-05-05T01:37:18.271Z,100064.44
2019-05-05T01:40:04.990Z,100071.57
2019-05-05T01:42:35.581Z,100075.23
2019-05-05T01:45:06.749Z,100073.98
2019-05-05T01:47:37.233Z,100081.97
2019-05-05T01:50:17.617Z,100086.19
2019-05-05T01:52:40.073Z,100083.00
2019-05-05T01:55:10.523Z,100091.90
2019-05-05T01:57:41.312Z,100092.61
2019-05-05T02:00:11.698Z,100104.97
2019-05-05T02:02:42.019Z,100112.31
2019-05-05T02:05:14.644Z,100114.69
2019-05-05T02:07:45.089Z,100115.63
2019-05-05T02:10:17.377Z,100123.06
2019-05-05T02:12:47.916Z,100122.50
2019-05-05T02:15:18.457Z,100125.48
2019-05-05T02:17:49.256Z,100124.84
2019-05-05T02:20:50.125Z,100124.28
2019-05-05T02:23:24.544Z,100119.68
2019-05-05T02:25:55.439Z,100120.46
2019-05-05T02:28:28.226Z,100127.31
2019-05-05T02:31:12.670Z,100127.61
2019-05-05T02:33:45.975Z,100125.28
2019-05-05T02:36:16.153Z,100134.02
2019-05-05T02:38:46.649Z,100142.91
2019-05-05T02:41:17.671Z,100142.37
2019-05-05T02:43:48.536Z,100140.41
2019-05-05T02:46:26.586Z,100139.63
2019-05-05T02:49:00.640Z,100141.19
2019-05-05T02:51:35.501Z,100141.45
2019-05-05T02:54:05.948Z,100149.97
2019-05-05T02:56:46.317Z,100160.36
2019-05-05T02:59:30.100Z,100157.20
2019-05-05T03:02:14.459Z,100157.64
2019-05-05T03:04:46.882Z,100157.95
2019-05-05T03:07:19.482Z,100159.06
2019-05-05T03:09:54.540Z,100173.75
2019-05-05T03:12:29.833Z,100167.95
2019-05-05T03:15:04.185Z,100172.42
2019-05-05T03:17:35.315Z,100177.66
2019-05-05T03:20:06.055Z,100183.16
2019-05-05T03:22:37.262Z,100192.30
2019-05-05T03:25:07.843Z,100198.06
2019-05-05T03:27:39.204Z,100193.23
2019-05-05T03:30:11.078Z,100192.37
2019-05-05T03:32:45.243Z,100192.34
2019-05-05T03:35:15.314Z,100192.52
2019-05-05T03:37:46.554Z,100196.41
2019-05-05T03:40:23.862Z,100196.41
2019-05-05T03:43:00.131Z,100198.62
2019-05-05T03:45:35.244Z,100197.84
2019-05-05T03:48:07.462Z,100199.35
2019-05-05T03:50:39.106Z,100198.74
2019-05-05T03:53:10.503Z,100201.34
2019-05-05T03:55:43.767Z,100207.16
2019-05-05T03:58:14.702Z,100212.41
2019-05-05T04:01:30.442Z,100207.82
2019-05-05T04:04:18.865Z,100206.42
2019-05-05T04:06:50.973Z,100217.34
2019-05-05T04:09:21.544Z,100217.44
2019-05-05T04:11:53.927Z,100215.11
2019-05-05T04:14:25.185Z,100209.02
2019-05-05T04:17:17.712Z,100217.04
2019-05-05T04:19:50.773Z,100209.98
2019-05-05T04:22:23.644Z,100217.91
2019-05-05T04:24:54.240Z,100217.48
2019-05-05T04:27:24.702Z,100217.57
2019-05-05T04:29:55.038Z,100221.44
2019-05-05T04:32:25.807Z,100219.58
2019-05-05T04:34:58.630Z,100223.56
2019-05-05T04:37:29.327Z,100225.73
2019-05-05T04:39:59.674Z,100233.59
2019-05-05T04:42:29.974Z,100232.11
2019-05-05T04:45:00.314Z,100233.19
2019-05-05T04:47:34.336Z,100237.88
2019-05-05T04:50:23.982Z,100242.05
2019-05-05T04:52:56.364Z,100239.00
2019-05-05T04:55:26.681Z,100244.41
2019-05-05T04:57:57.264Z,100243.38
2019-05-05T05:00:27.641Z,100243.13
2019-05-05T05:03:04.453Z,100238.98
2019-05-05T05:05:59.290Z,100248.73
2019-05-05T05:08:29.607Z,100250.34
2019-05-05T05:11:00.083Z,100246.55
2019-05-05T05:13:30.483Z,100244.80
2019-05-05T05:16:00.796Z,100244.28
2019-05-05T05:18:31.172Z,100247.84
2019-05-05T05:21:01.462Z,100252.95
2019-05-05T05:23:34.132Z,100254.41
2019-05-05T05:26:05.200Z,100258.17
2019-05-05T05:28:36.016Z,100255.70
2019-05-05T05:31:06.768Z,100262.14
2019-05-05T05:33:39.073Z,100259.33
2019-05-05T05:36:09.887Z,100255.85
2019-05-05T05:38:41.057Z,100264.28
2019-05-05T05:41:20.333Z,100271.02
2019-05-05T05:44:03.683Z,100278.45
2019-05-05T05:46:54.557Z,100280.77
2019-05-05T05:49:34.502Z,100279.58
2019-05-05T05:52:15.057Z,100278.48
2019-05-05T05:54:36.724Z,100289.05
2019-05-05T05:57:07.015Z,100278.86
2019-05-05T05:59:37.316Z,100281.56
2019-05-05T06:02:13.474Z,100290.67
2019-05-05T06:04:44.591Z,100294.38
2019-05-05T06:07:15.107Z,100300.73
2019-05-05T06:09:45.798Z,100301.98
2019-05-05T06:12:16.388Z,100309.53
2019-05-05T06:14:47.100Z,100311.59
2019-05-05T06:17:17.368Z,100316.38
2019-05-05T06:19:47.642Z,100314.20
2019-05-05T06:22:28.623Z,100314.31
2019-05-05T06:24:54.089Z,100325.23
2019-05-05T06:27:24.777Z,100326.98
2019-05-05T06:29:55.434Z,100327.01
2019-05-05T06:32:25.911Z,100316.17
2019-05-05T06:34:56.336Z,100316.56
2019-05-05T06:37:26.749Z,100312.84
2019-05-05T06:40:00.266Z,100310.16
2019-05-05T06:42:39.950Z,100320.95
2019-05-05T06:45:27.123Z,100313.52
2019-05-05T06:47:57.476Z,100317.56
2019-05-05T06:50:28.442Z,100309.05
2019-05-05T06:52:58.681Z,100310.50
2019-05-05T06:55:29.021Z,100307.94
2019-05-05T06:57:59.707Z,100316.66
2019-05-05T07:00:30.108Z,100318.14
2019-05-05T07:03:07.366Z,100322.58
2019-05-05T07:05:35.651Z,100324.41
2019-05-05T07:08:06.134Z,100323.77
2019-05-05T07:10:36.564Z,100319.02
2019-05-05T07:13:10.309Z,100315.88
2019-05-05T07:15:43.818Z,100328.84
2019-05-05T07:18:14.578Z,100320.09
2019-05-05T07:20:44.950Z,100325.63
2019-05-05T07:23:15.447Z,100339.02
2019-05-05T07:25:46.229Z,100337.47
2019-05-05T07:28:16.582Z,100338.52
2019-05-05T07:30:46.986Z,100334.07
2019-05-05T07:33:17.770Z,100335.36
2019-05-05T07:36:14.614Z,100328.13
2019-05-05T07:38:47.695Z,100338.37
2019-05-05T07:41:18.510Z,100332.52
2019-05-05T07:43:48.778Z,100337.00
2019-05-05T07:46:21.177Z,100333.38
2019-05-05T07:48:51.303Z,100334.00
2019-05-05T07:51:24.037Z,100343.45
2019-05-05T07:53:54.752Z,100346.98
2019-05-05T07:56:25.335Z,100351.50
2019-05-05T07:58:55.706Z,100343.47
2019-05-05T08:01:26.043Z,100351.27
2019-05-05T08:03:56.456Z,100346.02
2019-05-05T08:06:26.781Z,100350.77
2019-05-05T08:09:00.938Z,100349.01
2019-05-05T08:11:34.363Z,100358.75
2019-05-05T08:14:05.035Z,100353.06
2019-05-05T08:16:57.783Z,100356.95
2019-05-05T08:19:36.007Z,100362.77
2019-05-05T08:22:07.220Z,100370.86
2019-05-05T08:25:05.938Z,100366.96
2019-05-05T08:27:44.676Z,100362.28
2019-05-05T08:30:37.468Z,100367.66
2019-05-05T08:33:08.455Z,100367.13
2019-05-05T08:35:39.031Z,100373.67
2019-05-05T08:38:10.722Z,100380.97
2019-05-05T08:40:43.868Z,100376.65
2019-05-05T08:43:15.683Z,100380.66
2019-05-05T08:45:46.930Z,100374.19
2019-05-05T08:48:20.197Z,100365.81
2019-05-05T08:50:54.096Z,100357.06
2019-05-05T08:53:24.977Z,100357.91
2019-05-05T08:55:55.319Z,100366.24
2019-05-05T08:58:26.008Z,100369.20
2019-05-05T09:00:56.504Z,100366.55
2019-05-05T09:03:26.934Z,100367.14
2019-05-05T09:05:57.470Z,100363.63
2019-05-05T09:08:27.849Z,100366.34
2019-05-05T09:10:58.824Z,100372.44
2019-05-05T09:13:29.662Z,100366.33
2019-05-05T09:16:00.473Z,100368.52
2019-05-05T09:18:31.069Z,100369.71
2019-05-05T09:21:01.485Z,100365.11
2019-05-05T09:23:34.717Z,100362.59
2019-05-05T09:26:21.533Z,100364.53
2019-05-05T09:29:13.830Z,100358.55
2019-05-05T09:31:45.070Z,100358.63
2019-05-05T09:34:15.718Z,100349.80
2019-05-05T09:36:46.049Z,100347.88
2019-05-05T09:39:18.137Z,100354.46
2019-05-05T09:41:48.864Z,100349.50
2019-05-05T09:44:19.345Z,100360.32
2019-05-05T09:46:49.602Z,100353.84
2019-05-05T09:49:20.051Z,100352.86
2019-05-05T09:51:50.405Z,100353.52
2019-05-05T09:54:20.988Z,100352.16
2019-05-05T09:56:53.682Z,100346.91
2019-05-05T09:59:24.014Z,100347.09
2019-05-05T10:01:59.082Z,100355.73
2019-05-05T10:04:30.953Z,100360.06
2019-05-05T10:07:01.383Z,100363.51
2019-05-05T10:09:34.493Z,100370.84
2019-05-05T10:12:04.907Z,100381.16
2019-05-05T10:14:35.901Z,100377.39
2019-05-05T10:17:06.481Z,100377.44
2019-05-05T10:19:37.026Z,100376.07
2019-05-05T10:22:07.601Z,100373.89
2019-05-05T10:24:44.433Z,100370.36
2019-05-05T10:27:15.005Z,100371.58
2019-05-05T10:29:45.865Z,100377.95
2019-05-05T10:32:16.522Z,100384.19
2019-05-05T10:35:04.596Z,100373.42
2019-05-05T10:37:35.194Z,100375.12
2019-05-05T10:40:07.230Z,100379.45
2019-05-05T10:42:54.080Z,100380.02
2019-05-05T10:45:25.767Z,100381.77
2019-05-05T10:47:56.492Z,100380.23
2019-05-05T10:50:26.898Z,100378.48
2019-05-05T10:52:57.923Z,100375.77
2019-05-05T10:55:28.372Z,100372.76
2019-05-05T10:57:59.079Z,100376.72
2019-05-05T11:00:49.154Z,100375.08
2019-05-05T11:03:19.773Z,100371.89
2019-05-05T11:05:50.203Z,100370.13
2019-05-05T11:08:21.198Z,100365.64
2019-05-05T11:10:51.698Z,100367.81
2019-05-05T11:13:23.886Z,100365.86
2019-05-05T11:15:54.649Z,100371.79
2019-05-05T11:18:25.246Z,100366.04
2019-05-05T11:20:55.594Z,100361.00
2019-05-05T11:23:25.953Z,100365.14
2019-05-05T11:25:57.577Z,100359.74
2019-05-05T11:28:27.994Z,100359.55
2019-05-05T11:30:58.400Z,100358.59
2019-05-05T11:33:44.442Z,100353.94
2019-05-05T11:36:30.298Z,100355.32
2019-05-05T11:39:16.198Z,100355.78
2019-05-05T11:41:54.751Z,100355.37
2019-05-05T11:44:25.293Z,100355.55
2019-05-05T11:46:55.674Z,100358.98
2019-05-05T11:49:26.343Z,100352.25
2019-05-05T11:51:56.911Z,100357.59
2019-05-05T11:54:27.800Z,100350.84
2019-05-05T11:56:58.205Z,100358.78
2019-05-05T11:59:28.555Z,100363.98
2019-05-05T12:01:59.066Z,100362.14
2019-05-05T12:04:29.533Z,100370.06
2019-05-05T12:06:59.885Z,100366.95
2019-05-05T12:10:01.646Z,100367.72
2019-05-05T12:12:33.675Z,100368.58
2019-05-05T12:15:04.640Z,100370.76
2019-05-05T12:17:35.698Z,100365.24
2019-05-05T12:20:07.662Z,100365.00
2019-05-05T12:22:38.096Z,100368.50
2019-05-05T12:25:28.711Z,100364.05
2019-05-05T12:28:07.404Z,100362.72
2019-05-05T12:30:37.827Z,100357.04
2019-05-05T12:33:08.113Z,100356.13
2019-05-05T12:35:38.516Z,100357.34
2019-05-05T12:38:09.109Z,100360.77
2019-05-05T12:40:39.462Z,100353.76
2019-05-05T12:43:10.063Z,100359.41
2019-05-05T12:45:43.966Z,100366.14
2019-05-05T12:48:19.864Z,100358.92
2019-05-05T12:50:50.478Z,100360.31
2019-05-05T12:53:20.769Z,100360.53
2019-05-05T12:55:51.127Z,100359.72
2019-05-05T12:58:21.502Z,100357.91
2019-05-05T13:01:14.372Z,100357.73
2019-05-05T13:03:47.083Z,100353.49
2019-05-05T13:06:24.013Z,100347.98
2019-05-05T13:08:54.516Z,100346.14
2019-05-05T13:11:25.262Z,100339.25
2019-05-05T13:13:56.117Z,100337.73
2019-05-05T13:16:29.702Z,100333.27
2019-05-05T13:19:01.161Z,100340.12
2019-05-05T13:21:56.545Z,100336.45
2019-05-05T13:24:47.873Z,100343.90
2019-05-05T13:27:34.079Z,100339.05
2019-05-05T13:30:04.385Z,100346.52
2019-05-05T13:32:35.030Z,100347.23
2019-05-05T13:35:06.675Z,100348.63
2019-05-05T13:37:37.024Z,100349.42
2019-05-05T13:40:09.586Z,100343.19
2019-05-05T13:42:39.906Z,100350.75
2019-05-05T13:45:26.442Z,100353.19
2019-05-05T13:47:59.439Z,100354.33
2019-05-05T13:50:36.151Z,100353.19
2019-05-05T13:53:06.619Z,100351.03
2019-05-05T13:55:37.032Z,100354.23
2019-05-05T13:58:08.810Z,100354.00
2019-05-05T14:00:39.405Z,100359.01
2019-05-05T14:03:09.843Z,100361.76
2019-05-05T14:05:40.228Z,100349.19
2019-05-05T14:08:10.596Z,100354.22
2019-05-05T14:10:41.258Z,100351.17
2019-05-05T14:13:11.640Z,100348.97
2019-05-05T14:15:43.943Z,100346.86
2019-05-05T14:18:14.370Z,100346.85
2019-05-05T14:20:44.814Z,100341.75
2019-05-05T14:23:16.214Z,100345.38
2019-05-05T14:25:46.590Z,100345.91
2019-05-05T14:28:18.272Z,100343.36
2019-05-05T14:30:57.402Z,100334.67
2019-05-05T14:33:31.210Z,100340.25
2019-05-05T14:36:08.301Z,100340.58
2019-05-05T14:38:53.906Z,100348.23
2019-05-05T14:41:24.809Z,100349.11
2019-05-05T14:43:56.513Z,100344.62
2019-05-05T14:46:27.174Z,100348.61
2019-05-05T14:48:57.591Z,100350.62
2019-05-05T14:51:28.010Z,100352.52
2019-05-05T14:53:58.814Z,100354.05
2019-05-05T14:56:36.203Z,100353.98
2019-05-05T14:59:01.276Z,100349.16
2019-05-05T15:01:31.655Z,100349.20
2019-05-05T15:04:04.094Z,100345.34
2019-05-05T15:06:51.341Z,100344.84
2019-05-05T15:09:36.957Z,100344.42
2019-05-05T15:12:38.817Z,100338.78
2019-05-05T15:15:09.705Z,100334.85
2019-05-05T15:17:40.256Z,100333.29
2019-05-05T15:20:14.098Z,100332.80
2019-05-05T15:22:44.538Z,100331.39
2019-05-05T15:25:14.920Z,100328.09
2019-05-05T15:27:46.895Z,100334.70
2019-05-05T15:30:26.874Z,100329.53
2019-05-05T15:32:54.800Z,100330.33
2019-05-05T15:35:25.268Z,100331.96
2019-05-05T15:38:06.040Z,100330.80
2019-05-05T15:40:36.484Z,100328.20
2019-05-05T15:43:07.111Z,100328.36
2019-05-05T15:45:37.451Z,100334.03
2019-05-05T15:48:07.837Z,100336.21
2019-05-05T15:50:44.001Z,100326.78
2019-05-05T15:53:15.711Z,100330.48
2019-05-05T15:55:46.334Z,100329.86
2019-05-05T15:58:20.613Z,100336.95
2019-05-05T16:00:49.427Z,100332.69
2019-05-05T16:03:19.865Z,100335.83
2019-05-05T16:05:50.398Z,100340.64
2019-05-05T16:08:21.097Z,100340.68
2019-05-05T16:10:55.030Z,100335.10
2019-05-05T16:13:25.391Z,100338.92
2019-05-05T16:16:30.196Z,100332.04
2019-05-05T16:19:21.701Z,100335.66
2019-05-05T16:21:54.933Z,100333.17
2019-05-05T16:24:33.636Z,100342.51
2019-05-05T16:27:12.195Z,100339.76
2019-05-05T16:29:35.958Z,100340.87
2019-05-05T16:32:17.855Z,100340.89
2019-05-05T16:34:40.703Z,100338.80
2019-05-05T16:37:11.156Z,100340.88
2019-05-05T16:39:41.528Z,100338.63
2019-05-05T16:42:13.574Z,100346.38
2019-05-05T16:44:44.324Z,100346.41
2019-05-05T16:47:21.465Z,100341.48
2019-05-05T16:49:53.534Z,100347.27
2019-05-05T16:52:30.390Z,100342.27
2019-05-05T16:55:15.520Z,100339.04
2019-05-05T16:57:45.827Z,100342.87
2019-05-05T17:00:17.000Z,100344.21
2019-05-05T17:03:08.264Z,100338.97
2019-05-05T17:05:50.190Z,100339.78
2019-05-05T17:08:20.784Z,100347.56
2019-05-05T17:10:51.278Z,100349.41
2019-05-05T17:13:30.879Z,100347.02
2019-05-05T17:16:19.165Z,100348.22
2019-05-05T17:18:59.191Z,100341.20
2019-05-05T17:21:46.477Z,100347.70
2019-05-05T17:24:17.581Z,100348.87
2019-05-05T17:26:57.390Z,100346.38
2019-05-05T17:29:28.355Z,100346.53
2019-05-05T17:32:01.546Z,100344.01
2019-05-05T17:34:30.863Z,100348.13
2019-05-05T17:37:08.687Z,100356.48
2019-05-05T17:39:54.445Z,100362.09
2019-05-05T17:42:35.216Z,100363.61
2019-05-05T17:45:25.507Z,100360.53
2019-05-05T17:48:06.390Z,100361.14
2019-05-05T17:50:55.015Z,100365.19
2019-05-05T17:53:34.442Z,100359.97
2019-05-05T17:56:09.977Z,100361.98
2019-05-05T17:58:44.708Z,100362.36
2019-05-05T18:01:15.316Z,100364.64
2019-05-05T18:03:45.862Z,100360.69
2019-05-05T18:06:48.196Z,100365.74
2019-05-05T18:09:23.500Z,100373.24
2019-05-05T18:12:16.765Z,100374.16
2019-05-05T18:14:50.277Z,100366.95
2019-05-05T18:17:24.394Z,100368.81
2019-05-05T18:19:55.505Z,100378.77
2019-05-05T18:22:25.881Z,100381.41
2019-05-05T18:24:59.517Z,100391.47
2019-05-05T18:27:30.156Z,100391.80
2019-05-05T18:30:05.020Z,100388.74
2019-05-05T18:32:43.885Z,100390.73
2019-05-05T18:35:16.205Z,100387.86
2019-05-05T18:37:48.037Z,100394.66
2019-05-05T18:40:18.765Z,100392.96
2019-05-05T18:42:50.654Z,100399.18
2019-05-05T18:45:27.695Z,100404.13
2019-05-05T18:47:58.107Z,100400.92
2019-05-05T18:50:31.709Z,100408.94
2019-05-05T18:56:00.237Z,100407.56
2019-05-05T18:58:34.029Z,100412.61
2019-05-05T19:01:26.289Z,100415.56
2019-05-05T19:04:14.481Z,100419.30
2019-05-05T19:06:59.106Z,100411.92
2019-05-05T19:09:29.729Z,100416.56
2019-05-05T19:12:10.282Z,100415.03
2019-05-05T19:14:44.240Z,100416.30
2019-05-05T19:17:16.758Z,100413.23
2019-05-05T19:19:54.668Z,100417.73
2019-05-05T19:22:25.482Z,100413.87
2019-05-05T19:24:57.943Z,100415.94
2019-05-05T19:27:28.399Z,100413.77
2019-05-05T19:29:59.068Z,100416.36
2019-05-05T19:32:29.787Z,100412.25
2019-05-05T19:35:00.104Z,100414.88
2019-05-05T19:37:54.586Z,100412.58
2019-05-05T19:40:24.362Z,100411.88
2019-05-05T19:42:54.823Z,100418.16
2019-05-05T19:45:26.800Z,100422.33
2019-05-05T19:47:57.468Z,100431.93
2019-05-05T19:50:48.644Z,100428.50
2019-05-05T19:53:26.062Z,100433.22
2019-05-05T19:56:00.496Z,100432.58
2019-05-05T19:58:34.123Z,100427.45
2019-05-05T20:01:05.275Z,100425.81
2019-05-05T20:03:36.120Z,100427.17
2019-05-05T20:06:06.896Z,100427.84
2019-05-05T20:08:41.722Z,100423.73
2019-05-05T20:11:09.460Z,100429.08
2019-05-05T20:13:49.323Z,100424.30
2019-05-05T20:16:26.780Z,100429.55
2019-05-05T20:18:57.560Z,100431.94
2019-05-05T20:21:36.127Z,100426.52
2019-05-05T20:24:24.000Z,100426.70
2019-05-05T20:27:10.971Z,100421.21
2019-05-05T20:29:43.649Z,100427.58
2019-05-05T20:32:27.414Z,100426.23
2019-05-05T20:35:07.024Z,100422.93
2019-05-05T20:37:54.102Z,100423.17
2019-05-05T20:40:27.705Z,100427.80
2019-05-05T20:42:58.060Z,100420.06
2019-05-05T20:45:30.414Z,100421.30
2019-05-05T20:48:04.486Z,100415.98
2019-05-05T20:50:38.183Z,100421.20
2019-05-05T20:53:09.065Z,100416.75
2019-05-05T20:55:39.411Z,100417.17
2019-05-05T20:58:26.037Z,100415.16
2019-05-05T21:00:56.622Z,100418.14
2019-05-05T21:03:28.382Z,100418.52
2019-05-05T21:05:59.002Z,100418.52
2019-05-05T21:08:29.534Z,100420.30
2019-05-05T21:11:00.043Z,100419.81
2019-05-05T21:13:30.567Z,100419.17
2019-05-05T21:16:01.508Z,100423.52
2019-05-05T21:18:34.620Z,100425.47
2019-05-05T21:21:06.936Z,100420.83
2019-05-05T21:23:50.617Z,100416.63
2019-05-05T21:26:29.214Z,100416.73
2019-05-05T21:28:59.516Z,100417.20
2019-05-05T21:31:30.623Z,100420.67
2019-05-05T21:34:02.665Z,100412.21
2019-05-05T21:36:33.666Z,100416.88
2019-05-05T21:39:05.597Z,100415.63
2019-05-05T21:41:35.923Z,100416.37
2019-05-05T21:44:06.524Z,100419.59
2019-05-05T21:46:36.901Z,100421.99
2019-05-05T21:49:07.882Z,100420.36
2019-05-05T21:51:44.585Z,100416.92
2019-05-05T21:54:34.232Z,100419.13
2019-05-05T21:57:14.091Z,100418.44
2019-05-05T21:59:54.864Z,100418.65
2019-05-05T22:02:18.206Z,100414.41
2019-05-05T22:04:51.779Z,100415.75
2019-05-05T22:07:24.983Z,100412.58
2019-05-05T22:09:55.746Z,100405.69
2019-05-05T22:12:27.148Z,100407.74
2019-05-05T22:14:59.789Z,100404.00
2019-05-05T22:17:33.634Z,100400.53
2019-05-05T22:20:14.335Z,100402.55
2019-05-05T22:22:47.177Z,100400.63
2019-05-05T22:25:18.575Z,100406.27
2019-05-05T22:27:49.044Z,100408.54
2019-05-05T22:30:19.903Z,100409.10
2019-05-05T22:32:51.755Z,100411.62
2019-05-05T22:35:23.953Z,100410.67
2019-05-05T22:37:55.433Z,100406.28
2019-05-05T22:40:26.902Z,100407.59
2019-05-05T22:42:57.501Z,100408.03
2019-05-05T22:45:29.212Z,100409.00
2019-05-05T22:47:59.961Z,100407.39
2019-05-05T22:50:30.342Z,100408.09
2019-05-05T22:53:02.974Z,100405.45
2019-05-05T22:55:39.443Z,100405.66
2019-05-05T22:58:10.388Z,100410.36
2019-05-05T23:00:40.973Z,100409.99
2019-05-05T23:03:19.308Z,100406.40
2019-05-05T23:05:55.098Z,100410.70
2019-05-05T23:08:25.558Z,100415.76
2019-05-05T23:10:55.895Z,100411.69
2019-05-05T23:13:28.130Z,100408.69
2019-05-05T23:16:05.606Z,100409.66
2019-05-05T23:18:36.374Z,100413.30
2019-05-05T23:21:28.786Z,100405.84
2019-05-05T23:24:17.283Z,100410.80
2019-05-05T23:26:49.522Z,100412.36
2019-05-05T23:29:19.903Z,100414.90
2019-05-05T23:31:50.359Z,100414.73
2019-05-05T23:34:21.150Z,100418.68
2019-05-05T23:36:53.458Z,100416.54
2019-05-05T23:39:24.375Z,100418.58
2019-05-05T23:41:55.179Z,100418.36
2019-05-05T23:44:26.300Z,100421.48
2019-05-05T23:46:56.799Z,100421.44
2019-05-05T23:49:27.162Z,100416.16
2019-05-05T23:51:57.545Z,100419.75
2019-05-05T23:54:28.013Z,100421.34
2019-05-05T23:56:58.462Z,100413.34
2019-05-05T23:59:31.617Z,100418.09
